Main page
METAR-TAF:

METAR-TAF

Airports :

Damascus International Airport

Damascus, Syria

latitude: 33-25N, longitude: 036-31E, elevation: 608 m

Current weather observation

The report was made 27 minutes ago, at 01:00 UTC
Wind 7 kt from the Southwest
Temperature 6°C
Humidity 81%
Pressure 1014 hPa
Visibility 10 km or more
no clouds below 1500 m and no cumulonimbus

METAR: OSDI 190100Z 23007KT CAVOK 06/03 Q1014

Time: 04:27 (01:27 UTC)

Forecast

Forecast valid from 19 at 00 UTC to 20 at 06 UTC
Wind 15 kt from the Southwest with gusts up to 25 kt
Visibility: 8000 m
Few clouds at a height of 3000 ft
Scattered clouds at a height of 10000 ft
Temporary
from 19 at 00 UTC to 20 at 06 UTC
Wind 25 kt from the West with gusts up to 35 kt
Visibility: 5000 m
Few clouds at a height of 2500 ft
Broken clouds at a height of 3000 ft
Broken clouds at a height of 10000 ft
rain showers

TAF: OSDI 1900/2006 22015G25KT 8000 FEW030 SCT100 TEMPO 1900/2006 26025G35KT 5000 SHRA FEW025 CB BKN030 BKN100

Weather observations and forecasts of more than 4000 airports (METAR and TAF reports).

The available stations are represented by yellow and red dots on the map.

Hover mouse over dot to see the name of the station.

Then click to see weather observations and forecasts.

To change the map : click on the green buttons with a black cross to zoom in, on the green button with a dash to zoom out, or on the green arrows for adjacent maps.


METAR-TAF: